createdAt,value
2023-02-19T00:01:44.377Z,100967.97
2023-02-19T00:04:16.454Z,100968.91
2023-02-19T00:06:44.347Z,100967.03
2023-02-19T00:09:13.370Z,100970.53
2023-02-19T00:11:41.025Z,100981.28
2023-02-19T00:14:08.240Z,100971.75
2023-02-19T00:16:40.139Z,100969.88
2023-02-19T00:19:11.800Z,100969.34
2023-02-19T00:21:38.685Z,100972.25
2023-02-19T00:24:07.449Z,100980.06
2023-02-19T00:26:34.887Z,100981.03
2023-02-19T00:29:02.160Z,100977.00
2023-02-19T00:31:37.972Z,100967.88
2023-02-19T00:34:06.357Z,100968.31
2023-02-19T00:36:36.663Z,100957.66
2023-02-19T00:39:05.198Z,100967.53
2023-02-19T00:41:32.222Z,100973.09
2023-02-19T00:44:04.770Z,100968.16
2023-02-19T00:46:34.366Z,100964.75
2023-02-19T00:49:03.804Z,100966.47
2023-02-19T00:51:33.779Z,100969.13
2023-02-19T00:54:00.681Z,100981.66
2023-02-19T00:56:28.122Z,100978.31
2023-02-19T00:58:56.063Z,100990.00
2023-02-19T01:01:22.891Z,100995.94
2023-02-19T01:03:51.018Z,100999.59
2023-02-19T01:06:20.324Z,100995.00
2023-02-19T01:08:47.237Z,100995.16
2023-02-19T01:11:14.376Z,101006.88
2023-02-19T01:13:41.846Z,101005.72
2023-02-19T01:16:11.456Z,100996.13
2023-02-19T01:18:38.790Z,100999.53
2023-02-19T01:21:08.078Z,100999.94
2023-02-19T01:23:35.992Z,101009.44
2023-02-19T01:26:15.699Z,101006.38
2023-02-19T01:28:43.067Z,101007.16
2023-02-19T01:31:13.665Z,101007.22
2023-02-19T01:33:40.929Z,100999.91
2023-02-19T01:36:07.898Z,101000.94
2023-02-19T01:38:34.673Z,101001.44
2023-02-19T01:41:04.440Z,101001.59
2023-02-19T01:43:35.484Z,101002.44
2023-02-19T01:46:02.402Z,101007.22
2023-02-19T01:48:39.721Z,101009.19
2023-02-19T01:51:11.316Z,101008.91
2023-02-19T01:53:42.054Z,101012.16
2023-02-19T01:56:10.901Z,101015.31
2023-02-19T01:58:38.512Z,101012.75
2023-02-19T02:01:08.585Z,101016.41
2023-02-19T02:03:38.205Z,101013.84
2023-02-19T02:06:12.538Z,101021.84
2023-02-19T02:08:58.403Z,101019.31
2023-02-19T02:11:25.457Z,101023.81
2023-02-19T02:13:52.564Z,101015.13
2023-02-19T02:16:29.082Z,101009.78
2023-02-19T02:19:24.132Z,101020.22
2023-02-19T02:22:17.932Z,101013.25
2023-02-19T02:25:07.520Z,101015.22
2023-02-19T02:27:49.249Z,101013.66
2023-02-19T02:30:34.061Z,101016.19
2023-02-19T02:33:16.736Z,101006.31
2023-02-19T02:35:56.626Z,101013.47
2023-02-19T02:38:28.239Z,101027.44
2023-02-19T02:40:56.851Z,101036.13
2023-02-19T02:43:25.544Z,101043.03
2023-02-19T02:45:52.516Z,101050.09
2023-02-19T02:48:31.353Z,101056.03
2023-02-19T02:51:21.373Z,101057.88
2023-02-19T02:54:25.973Z,101056.25
2023-02-19T02:56:55.604Z,101058.91
2023-02-19T02:59:26.004Z,101050.22
2023-02-19T03:02:11.780Z,101035.41
2023-02-19T03:05:08.817Z,101038.13
2023-02-19T03:07:47.674Z,101036.09
2023-02-19T03:10:28.123Z,101040.50
2023-02-19T03:13:18.709Z,101040.50
2023-02-19T03:16:20.496Z,101047.31
2023-02-19T03:19:11.198Z,101053.47
2023-02-19T03:21:41.748Z,101039.34
2023-02-19T03:24:30.673Z,101041.28
2023-02-19T03:27:02.058Z,101033.91
2023-02-19T03:29:38.915Z,101030.50
2023-02-19T03:32:13.705Z,101028.00
2023-02-19T03:34:56.976Z,101042.22
2023-02-19T03:37:33.441Z,101061.09
2023-02-19T03:40:01.013Z,101061.41
2023-02-19T03:43:03.259Z,101060.25
2023-02-19T03:45:38.996Z,101061.47
2023-02-19T03:48:38.186Z,101073.03
2023-02-19T03:51:41.886Z,101076.34
2023-02-19T03:54:19.660Z,101073.72
2023-02-19T03:56:57.176Z,101076.34
2023-02-19T03:59:48.968Z,101076.16
2023-02-19T04:02:23.371Z,101074.50
2023-02-19T04:05:07.785Z,101069.16
2023-02-19T04:07:40.345Z,101069.06
2023-02-19T04:10:10.036Z,101065.66
2023-02-19T04:12:46.256Z,101066.50
2023-02-19T04:15:17.952Z,101051.16
2023-02-19T04:17:49.930Z,101027.56
2023-02-19T04:20:18.343Z,101007.41
2023-02-19T04:22:46.353Z,101009.09
2023-02-19T04:25:14.072Z,101008.84
2023-02-19T04:27:44.370Z,101017.53
2023-02-19T04:30:13.606Z,101018.47
2023-02-19T04:32:40.286Z,101013.44
2023-02-19T04:35:07.135Z,101016.94
2023-02-19T04:37:33.828Z,101026.78
2023-02-19T04:40:00.599Z,101025.88
2023-02-19T04:42:27.323Z,101033.72
2023-02-19T04:44:54.067Z,101021.38
2023-02-19T04:47:20.731Z,101017.63
2023-02-19T04:49:47.463Z,101009.91
2023-02-19T04:52:14.290Z,101014.31
2023-02-19T04:54:41.055Z,101014.31
2023-02-19T04:57:08.018Z,101013.66
2023-02-19T04:59:34.809Z,101018.75
2023-02-19T05:02:01.705Z,101021.47
2023-02-19T05:04:28.373Z,101014.66
2023-02-19T05:06:55.134Z,101010.25
2023-02-19T05:09:21.834Z,101005.81
2023-02-19T05:11:48.579Z,100993.31
2023-02-19T05:14:15.372Z,100993.63
2023-02-19T05:16:42.104Z,100985.53
2023-02-19T05:19:11.565Z,100986.75
2023-02-19T05:21:40.433Z,100977.88
2023-02-19T05:24:07.692Z,100976.00
2023-02-19T05:26:35.149Z,100968.28
2023-02-19T05:29:02.825Z,100980.84
2023-02-19T05:31:29.966Z,100967.63
2023-02-19T05:33:56.783Z,100973.22
2023-02-19T05:36:23.762Z,100996.00
2023-02-19T05:38:55.185Z,100993.47
2023-02-19T05:41:24.955Z,100987.66
2023-02-19T05:43:52.758Z,100996.25
2023-02-19T05:46:22.072Z,100993.72
2023-02-19T05:48:49.840Z,100995.34
2023-02-19T05:51:19.034Z,100998.88
2023-02-19T05:53:46.694Z,101003.16
2023-02-19T05:56:35.249Z,101000.59
2023-02-19T05:59:23.609Z,100990.59
2023-02-19T06:01:51.927Z,100985.00
2023-02-19T06:04:20.015Z,100993.50
2023-02-19T06:06:47.887Z,100995.06
2023-02-19T06:09:14.561Z,100989.28
2023-02-19T06:11:43.412Z,100992.69
2023-02-19T06:14:14.585Z,100990.66
2023-02-19T06:16:41.958Z,100990.50
2023-02-19T06:19:08.733Z,100987.78
2023-02-19T06:21:35.940Z,100980.56
2023-02-19T06:24:07.492Z,100970.59
2023-02-19T06:26:34.583Z,100953.97
2023-02-19T06:29:01.329Z,100954.81
2023-02-19T06:31:28.215Z,100949.47
2023-02-19T06:33:55.407Z,100952.19
2023-02-19T06:36:23.505Z,100944.38
2023-02-19T06:38:50.767Z,100946.06
2023-02-19T06:41:17.619Z,100946.84
2023-02-19T06:43:44.662Z,100937.13
2023-02-19T06:46:13.018Z,100933.63
2023-02-19T06:48:41.847Z,100929.38
2023-02-19T06:51:12.871Z,100924.75
2023-02-19T06:53:39.831Z,100917.88
2023-02-19T06:56:20.841Z,100916.50
2023-02-19T06:58:47.552Z,100915.41
2023-02-19T07:01:14.331Z,100914.19
2023-02-19T07:03:41.043Z,100916.94
2023-02-19T07:06:08.033Z,100922.03
2023-02-19T07:08:34.794Z,100913.88
2023-02-19T07:11:01.583Z,100918.81
2023-02-19T07:13:28.301Z,100915.13
2023-02-19T07:16:03.076Z,100915.91
2023-02-19T07:18:30.906Z,100907.91
2023-02-19T07:21:05.354Z,100897.34
2023-02-19T07:23:32.370Z,100899.97
2023-02-19T07:25:59.177Z,100895.47
2023-02-19T07:28:26.435Z,100884.06
2023-02-19T07:30:53.493Z,100895.47
2023-02-19T07:33:20.485Z,100899.84
2023-02-19T07:35:51.245Z,100907.56
2023-02-19T07:38:19.926Z,100911.91
2023-02-19T07:40:56.969Z,100896.81
2023-02-19T07:43:24.962Z,100897.56
2023-02-19T07:45:52.873Z,100907.03
2023-02-19T07:48:20.178Z,100902.44
2023-02-19T07:50:59.371Z,100902.44
2023-02-19T07:53:27.199Z,100914.59
2023-02-19T07:55:54.529Z,100906.59
2023-02-19T07:58:21.346Z,100885.19
2023-02-19T08:00:48.024Z,100873.44
2023-02-19T08:03:14.779Z,100880.06
2023-02-19T08:05:43.096Z,100875.09
2023-02-19T08:08:12.400Z,100874.06
2023-02-19T08:10:58.084Z,100880.03
2023-02-19T08:13:27.364Z,100877.75
2023-02-19T08:16:19.990Z,100868.31
2023-02-19T08:18:49.095Z,100862.50
2023-02-19T08:21:18.278Z,100859.38
2023-02-19T08:23:46.383Z,100866.28
2023-02-19T08:26:13.267Z,100862.69
2023-02-19T08:28:40.060Z,100863.34
2023-02-19T08:31:09.823Z,100844.75
2023-02-19T08:33:37.530Z,100827.06
2023-02-19T08:36:06.132Z,100824.34
2023-02-19T08:38:35.850Z,100822.28
2023-02-19T08:41:11.403Z,100825.69
2023-02-19T08:43:39.041Z,100820.56
2023-02-19T08:46:07.290Z,100814.50
2023-02-19T08:48:34.334Z,100807.53
2023-02-19T08:51:04.175Z,100809.97
2023-02-19T08:53:32.306Z,100807.88
2023-02-19T08:55:59.136Z,100804.31
2023-02-19T08:58:26.386Z,100807.25
2023-02-19T09:00:53.585Z,100807.88
2023-02-19T09:03:20.444Z,100813.59
2023-02-19T09:05:47.112Z,100805.44
2023-02-19T09:08:13.908Z,100801.75
2023-02-19T09:10:40.608Z,100808.09
2023-02-19T09:13:07.536Z,100791.47
2023-02-19T09:15:34.233Z,100796.00
2023-02-19T09:18:01.042Z,100789.88
2023-02-19T09:20:27.729Z,100779.59
2023-02-19T09:22:59.020Z,100785.03
2023-02-19T09:25:26.020Z,100784.97
2023-02-19T09:27:56.549Z,100784.88
2023-02-19T09:30:23.542Z,100791.00
2023-02-19T09:32:50.336Z,100790.78
2023-02-19T09:35:17.127Z,100782.88
2023-02-19T09:37:43.825Z,100798.94
2023-02-19T09:40:11.390Z,100784.50
2023-02-19T09:42:41.175Z,100785.44
2023-02-19T09:45:09.598Z,100796.50
2023-02-19T09:47:36.338Z,100799.69
2023-02-19T09:50:07.987Z,100793.47
2023-02-19T09:52:43.274Z,100793.28
2023-02-19T09:55:14.617Z,100787.13
2023-02-19T09:57:41.813Z,100797.34
2023-02-19T10:00:11.478Z,100798.47
2023-02-19T10:02:39.054Z,100793.66
2023-02-19T10:05:14.383Z,100809.22
2023-02-19T10:07:47.830Z,100813.38
2023-02-19T10:10:14.660Z,100818.38
2023-02-19T10:12:46.788Z,100807.41
2023-02-19T10:15:25.766Z,100809.28
2023-02-19T10:17:52.722Z,100801.06
2023-02-19T10:20:24.673Z,100796.31
2023-02-19T10:23:03.606Z,100789.47
2023-02-19T10:25:31.961Z,100783.78
2023-02-19T10:28:00.239Z,100771.56
2023-02-19T10:30:33.321Z,100768.00
2023-02-19T10:33:12.459Z,100760.09
2023-02-19T10:35:54.734Z,100761.06
2023-02-19T10:38:43.747Z,100760.84
2023-02-19T10:41:23.586Z,100760.34
2023-02-19T10:43:55.681Z,100760.34
2023-02-19T10:46:26.293Z,100758.31
2023-02-19T10:48:59.466Z,100757.91
2023-02-19T10:51:36.330Z,100748.78
2023-02-19T10:54:06.346Z,100747.63
2023-02-19T10:56:34.080Z,100734.38
2023-02-19T10:59:24.488Z,100735.63
2023-02-19T11:02:00.166Z,100720.91
2023-02-19T11:04:34.077Z,100726.22
2023-02-19T11:07:11.803Z,100723.53
2023-02-19T11:09:40.850Z,100715.03
2023-02-19T11:12:09.642Z,100727.94
2023-02-19T11:14:36.700Z,100722.31
2023-02-19T11:17:05.837Z,100720.41
2023-02-19T11:19:42.712Z,100709.78
2023-02-19T11:22:34.384Z,100711.59
2023-02-19T11:25:25.393Z,100713.91
2023-02-19T11:28:07.366Z,100707.66
2023-02-19T11:30:44.556Z,100719.22
2023-02-19T11:33:17.244Z,100717.09
2023-02-19T11:35:44.906Z,100711.91
2023-02-19T11:38:13.718Z,100700.22
2023-02-19T11:40:44.058Z,100689.25
2023-02-19T11:43:42.875Z,100688.22
2023-02-19T11:46:43.153Z,100678.88
2023-02-19T11:49:41.031Z,100670.91
2023-02-19T11:52:19.757Z,100657.75
2023-02-19T11:54:54.651Z,100652.34
2023-02-19T11:57:47.750Z,100639.72
2023-02-19T12:00:24.798Z,100628.56
2023-02-19T12:03:20.793Z,100621.97
2023-02-19T12:05:56.614Z,100614.00
2023-02-19T12:08:32.056Z,100604.13
2023-02-19T12:11:01.393Z,100589.22
2023-02-19T12:13:56.058Z,100581.63
2023-02-19T12:16:28.546Z,100575.50
2023-02-19T12:19:26.542Z,100565.75
2023-02-19T12:22:16.647Z,100563.88
2023-02-19T12:24:55.121Z,100553.59
2023-02-19T12:27:40.212Z,100549.50
2023-02-19T12:30:29.548Z,100542.25
2023-02-19T12:33:18.585Z,100535.97
2023-02-19T12:36:05.673Z,100537.09
2023-02-19T12:38:43.278Z,100527.66
2023-02-19T12:41:37.890Z,100510.34
2023-02-19T12:44:12.126Z,100513.50
2023-02-19T12:46:43.094Z,100506.84
2023-02-19T12:49:33.187Z,100498.47
2023-02-19T12:52:20.591Z,100503.69
2023-02-19T12:54:55.997Z,100506.09
2023-02-19T12:57:31.626Z,100478.53
2023-02-19T13:00:07.408Z,100472.09
2023-02-19T13:02:39.900Z,100463.03
2023-02-19T13:05:20.244Z,100453.38
2023-02-19T13:08:02.481Z,100446.50
2023-02-19T13:10:39.359Z,100435.59
2023-02-19T13:13:12.960Z,100431.97
2023-02-19T13:15:46.230Z,100427.72
2023-02-19T13:18:18.762Z,100413.47
2023-02-19T13:20:48.779Z,100405.88
2023-02-19T13:23:45.877Z,100398.63
2023-02-19T13:26:38.724Z,100397.53
2023-02-19T13:29:08.350Z,100382.28
2023-02-19T13:31:53.192Z,100367.03
2023-02-19T13:34:25.923Z,100361.97
2023-02-19T13:36:54.438Z,100354.97
2023-02-19T13:39:22.562Z,100343.34
2023-02-19T13:41:52.152Z,100340.44
2023-02-19T13:44:21.995Z,100334.72
2023-02-19T13:46:50.657Z,100317.53
2023-02-19T13:49:42.088Z,100308.19
2023-02-19T13:52:33.203Z,100311.16
2023-02-19T13:55:40.763Z,100299.28
2023-02-19T13:58:33.195Z,100285.47
2023-02-19T14:01:08.593Z,100278.03
2023-02-19T14:03:55.222Z,100286.84
2023-02-19T14:06:21.973Z,100271.75
2023-02-19T14:08:53.450Z,100261.66
2023-02-19T14:11:43.058Z,100257.50
2023-02-19T14:14:37.730Z,100248.81
2023-02-19T14:17:08.655Z,100250.81
2023-02-19T14:19:50.745Z,100233.19
2023-02-19T14:23:05.743Z,100223.09
2023-02-19T14:25:49.374Z,100201.69
2023-02-19T14:28:30.696Z,100202.66
2023-02-19T14:31:11.447Z,100201.13
2023-02-19T14:33:43.238Z,100190.16
2023-02-19T14:36:31.361Z,100173.44
2023-02-19T14:39:02.487Z,100174.84
2023-02-19T14:41:32.827Z,100160.25
2023-02-19T14:44:02.093Z,100158.59
2023-02-19T14:46:37.237Z,100153.09
2023-02-19T14:49:23.792Z,100148.44
2023-02-19T14:51:55.496Z,100148.31
2023-02-19T14:54:43.393Z,100124.03
2023-02-19T14:57:17.546Z,100123.75
2023-02-19T15:00:01.676Z,100134.34
2023-02-19T15:02:30.964Z,100130.16
2023-02-19T15:04:58.662Z,100124.69
2023-02-19T15:07:29.971Z,100113.19
2023-02-19T15:10:04.890Z,100098.41
2023-02-19T15:12:39.852Z,100084.84
2023-02-19T15:15:07.225Z,100070.09
2023-02-19T15:17:38.113Z,100044.44
2023-02-19T15:20:11.223Z,100029.41
2023-02-19T15:22:41.434Z,100023.13
2023-02-19T15:25:12.264Z,100007.50
2023-02-19T15:27:39.119Z,100010.47
2023-02-19T15:30:19.217Z,100000.50
2023-02-19T15:32:59.954Z,100003.41
2023-02-19T15:35:28.808Z,99983.59
2023-02-19T15:37:55.775Z,99975.59
2023-02-19T15:40:29.202Z,99969.28
2023-02-19T15:42:57.311Z,99956.59
2023-02-19T15:45:41.599Z,99956.47
2023-02-19T15:48:19.645Z,99967.81
2023-02-19T15:50:53.375Z,99977.94
2023-02-19T15:53:34.095Z,99980.00
2023-02-19T15:56:05.785Z,99975.97
2023-02-19T15:58:42.835Z,99975.22
2023-02-19T16:01:26.938Z,99958.16
2023-02-19T16:03:55.405Z,99961.91
2023-02-19T16:06:24.497Z,99957.59
2023-02-19T16:09:07.021Z,99953.31
2023-02-19T16:11:48.590Z,99966.44
2023-02-19T16:14:31.766Z,99969.84
2023-02-19T16:17:10.755Z,99969.22
2023-02-19T16:19:45.774Z,99950.75
2023-02-19T16:22:17.614Z,99949.50
2023-02-19T16:24:47.215Z,99950.72
2023-02-19T16:27:27.254Z,99939.03
2023-02-19T16:29:54.552Z,99896.31
2023-02-19T16:32:21.442Z,99882.31
2023-02-19T16:34:50.638Z,99907.72
2023-02-19T16:37:37.305Z,99887.03
2023-02-19T16:40:14.076Z,99878.28
2023-02-19T16:42:48.645Z,99878.78
2023-02-19T16:45:16.101Z,99863.75
2023-02-19T16:47:47.296Z,99882.06
2023-02-19T16:50:23.270Z,99886.66
2023-02-19T16:52:55.207Z,99892.97
2023-02-19T16:55:22.770Z,99885.91
2023-02-19T16:57:49.803Z,99876.38
2023-02-19T17:00:18.103Z,99855.25
2023-02-19T17:02:47.346Z,99842.56
2023-02-19T17:05:14.793Z,99843.06
2023-02-19T17:07:42.293Z,99833.44
2023-02-19T17:10:13.966Z,99848.44
2023-02-19T17:12:40.642Z,99849.75
2023-02-19T17:15:07.730Z,99821.91
2023-02-19T17:17:34.756Z,99830.81
2023-02-19T17:20:01.416Z,99858.22
2023-02-19T17:22:28.153Z,99859.53
2023-02-19T17:24:55.207Z,99843.88
2023-02-19T17:27:21.941Z,99860.88
2023-02-19T17:29:48.605Z,99851.00
2023-02-19T17:32:15.545Z,99856.19
2023-02-19T17:34:42.578Z,99834.50
2023-02-19T17:37:09.307Z,99814.09
2023-02-19T17:39:36.035Z,99796.72
2023-02-19T17:42:03.425Z,99794.72
2023-02-19T17:44:30.235Z,99790.88
2023-02-19T17:46:57.052Z,99784.34
2023-02-19T17:49:24.054Z,99786.00
2023-02-19T17:51:50.771Z,99778.81
2023-02-19T17:54:17.431Z,99770.16
2023-02-19T17:56:46.091Z,99757.78
2023-02-19T17:59:13.217Z,99757.78
2023-02-19T18:01:40.090Z,99727.34
2023-02-19T18:04:07.180Z,99734.53
2023-02-19T18:06:34.940Z,99740.50
2023-02-19T18:09:01.660Z,99735.69
2023-02-19T18:11:28.421Z,99728.16
2023-02-19T18:13:55.620Z,99741.38
2023-02-19T18:16:22.697Z,99742.22
2023-02-19T18:18:49.405Z,99758.75
2023-02-19T18:21:16.296Z,99773.97
2023-02-19T18:23:43.302Z,99771.97
2023-02-19T18:26:11.645Z,99786.88
2023-02-19T18:28:38.586Z,99792.88
2023-02-19T18:31:05.957Z,99775.66
2023-02-19T18:33:34.082Z,99781.50
2023-02-19T18:36:00.956Z,99763.78
2023-02-19T18:38:28.018Z,99766.47
2023-02-19T18:40:55.919Z,99788.19
2023-02-19T18:43:24.147Z,99769.63
2023-02-19T18:45:51.480Z,99772.13
2023-02-19T18:48:18.323Z,99780.97
2023-02-19T18:50:45.190Z,99792.38
2023-02-19T18:53:12.248Z,99784.84
2023-02-19T18:55:38.913Z,99758.59
2023-02-19T18:58:05.590Z,99797.38
2023-02-19T19:00:32.266Z,99811.41
2023-02-19T19:02:59.632Z,99814.09
2023-02-19T19:05:26.801Z,99819.44
2023-02-19T19:07:59.310Z,99826.78
2023-02-19T19:10:27.707Z,99803.06
2023-02-19T19:12:54.661Z,99790.22
2023-02-19T19:15:21.987Z,99785.00
2023-02-19T19:17:49.401Z,99819.09
2023-02-19T19:20:22.587Z,99819.09
2023-02-19T19:22:51.629Z,99813.09
2023-02-19T19:25:19.872Z,99800.72
2023-02-19T19:27:46.974Z,99816.72
2023-02-19T19:30:14.123Z,99822.03
2023-02-19T19:32:40.879Z,99833.56
2023-02-19T19:35:07.888Z,99840.59
2023-02-19T19:37:35.274Z,99826.75
2023-02-19T19:40:03.860Z,99834.91
2023-02-19T19:42:30.571Z,99820.34
2023-02-19T19:44:57.238Z,99823.72
2023-02-19T19:47:23.941Z,99831.84
2023-02-19T19:49:50.671Z,99818.63
2023-02-19T19:52:17.429Z,99807.28
2023-02-19T19:54:44.613Z,99795.44
2023-02-19T19:57:11.550Z,99805.63
2023-02-19T19:59:39.536Z,99814.22
2023-02-19T20:02:07.672Z,99783.25
2023-02-19T20:04:34.644Z,99801.22
2023-02-19T20:07:01.849Z,99814.75
2023-02-19T20:09:29.136Z,99822.72
2023-02-19T20:11:57.036Z,99799.00
2023-02-19T20:14:25.172Z,99803.97
2023-02-19T20:16:53.114Z,99779.91
2023-02-19T20:19:21.116Z,99787.84
2023-02-19T20:21:49.935Z,99803.88
2023-02-19T20:24:19.446Z,99794.56
2023-02-19T20:26:46.265Z,99774.91
2023-02-19T20:29:13.127Z,99785.19
2023-02-19T20:31:40.340Z,99780.91
2023-02-19T20:34:07.722Z,99776.97
2023-02-19T20:36:41.743Z,99784.06
2023-02-19T20:39:08.570Z,99774.84
2023-02-19T20:41:35.257Z,99753.00
2023-02-19T20:44:02.197Z,99745.50
2023-02-19T20:46:29.999Z,99762.50
2023-02-19T20:48:57.283Z,99752.66
2023-02-19T20:51:24.014Z,99746.50
2023-02-19T20:53:50.882Z,99754.66
2023-02-19T20:56:17.560Z,99754.34
2023-02-19T20:58:44.366Z,99744.66
2023-02-19T21:01:12.096Z,99729.97
2023-02-19T21:03:38.787Z,99734.19
2023-02-19T21:06:06.246Z,99717.00
2023-02-19T21:08:33.010Z,99711.69
2023-02-19T21:10:59.732Z,99717.50
2023-02-19T21:13:27.054Z,99721.34
2023-02-19T21:15:54.645Z,99703.00
2023-02-19T21:18:21.459Z,99721.66
2023-02-19T21:20:48.096Z,99709.38
2023-02-19T21:23:14.967Z,99698.50
2023-02-19T21:25:41.634Z,99688.66
2023-02-19T21:28:09.722Z,99690.84
2023-02-19T21:30:36.406Z,99688.66
2023-02-19T21:33:03.567Z,99695.03
2023-02-19T21:35:30.589Z,99688.84
2023-02-19T21:37:57.350Z,99666.34
2023-02-19T21:40:25.326Z,99677.69
2023-02-19T21:42:51.992Z,99661.53
2023-02-19T21:45:18.731Z,99662.41
2023-02-19T21:47:45.551Z,99652.94
2023-02-19T21:50:12.580Z,99656.44
2023-02-19T21:52:39.261Z,99651.09
2023-02-19T21:55:06.400Z,99664.13
2023-02-19T21:57:33.212Z,99669.63
2023-02-19T22:00:00.004Z,99635.13
2023-02-19T22:02:26.645Z,99637.81
2023-02-19T22:04:54.114Z,99649.97
2023-02-19T22:07:21.838Z,99659.22
2023-02-19T22:09:49.643Z,99664.84
2023-02-19T22:12:17.441Z,99667.53
2023-02-19T22:14:44.346Z,99681.19
2023-02-19T22:17:11.775Z,99686.19
2023-02-19T22:19:39.237Z,99696.25
2023-02-19T22:22:06.273Z,99699.59
2023-02-19T22:24:33.091Z,99689.06
2023-02-19T22:26:59.869Z,99700.22
2023-02-19T22:29:26.609Z,99682.50
2023-02-19T22:31:53.476Z,99678.50
2023-02-19T22:34:20.211Z,99667.38
2023-02-19T22:36:47.049Z,99663.19
2023-02-19T22:39:25.613Z,99667.19
2023-02-19T22:41:53.330Z,99682.81
2023-02-19T22:44:20.431Z,99665.75
2023-02-19T22:46:50.171Z,99665.44
2023-02-19T22:49:17.773Z,99644.44
2023-02-19T22:52:05.628Z,99621.78
2023-02-19T22:54:32.359Z,99624.44
2023-02-19T22:56:59.015Z,99595.44
2023-02-19T22:59:25.727Z,99584.06
2023-02-19T23:01:53.172Z,99582.56
2023-02-19T23:04:21.693Z,99581.06
2023-02-19T23:06:48.567Z,99574.56
2023-02-19T23:09:24.878Z,99576.78
2023-02-19T23:11:52.585Z,99604.44
2023-02-19T23:14:21.578Z,99582.13
2023-02-19T23:16:48.384Z,99591.94
2023-02-19T23:19:16.088Z,99568.09
2023-02-19T23:21:45.662Z,99577.72
2023-02-19T23:24:13.558Z,99574.91
2023-02-19T23:26:48.744Z,99585.91
2023-02-19T23:29:17.881Z,99574.25
2023-02-19T23:31:44.662Z,99568.09
2023-02-19T23:34:11.670Z,99580.75
2023-02-19T23:36:46.028Z,99559.72
2023-02-19T23:39:14.466Z,99569.38
2023-02-19T23:41:52.543Z,99583.09
2023-02-19T23:44:20.887Z,99595.56
2023-02-19T23:46:48.230Z,99580.25
2023-02-19T23:49:15.466Z,99573.91
2023-02-19T23:51:42.172Z,99559.88
2023-02-19T23:54:15.321Z,99568.03
2023-02-19T23:56:42.095Z,99555.41
